sensor_id;sensor_type;location;lat;lon;timestamp;pressure;altitude;pressure_sealevel;temperature;humidity
3260;BME280;68938;48.150;14.004;2023-05-02T00:01:19;98030.63;;;16.21;67.36
3260;BME280;68938;48.150;14.004;2023-05-02T00:03:46;98036.13;;;16.15;67.66
3260;BME280;68938;48.150;14.004;2023-05-02T00:06:13;98041.28;;;15.99;68.77
3260;BME280;68938;48.150;14.004;2023-05-02T00:08:40;98041.22;;;16.00;67.65
3260;BME280;68938;48.150;14.004;2023-05-02T00:11:07;98036.28;;;16.11;67.82
3260;BME280;68938;48.150;14.004;2023-05-02T00:13:34;98040.47;;;16.14;67.77
3260;BME280;68938;48.150;14.004;2023-05-02T00:16:01;98041.88;;;16.20;67.81
3260;BME280;68938;48.150;14.004;2023-05-02T00:18:28;98042.53;;;16.23;67.65
3260;BME280;68938;48.150;14.004;2023-05-02T00:20:55;98039.63;;;16.29;67.33
3260;BME280;68938;48.150;14.004;2023-05-02T00:23:21;98032.97;;;16.25;67.39
3260;BME280;68938;48.150;14.004;2023-05-02T00:25:48;98045.72;;;16.28;67.50
3260;BME280;68938;48.150;14.004;2023-05-02T00:28:15;98041.38;;;16.29;67.41
3260;BME280;68938;48.150;14.004;2023-05-02T00:30:43;98045.56;;;16.31;67.24
3260;BME280;68938;48.150;14.004;2023-05-02T00:33:11;98039.22;;;16.21;67.50
3260;BME280;68938;48.150;14.004;2023-05-02T00:35:39;98041.81;;;16.21;67.82
3260;BME280;68938;48.150;14.004;2023-05-02T00:38:06;98038.97;;;16.26;67.55
3260;BME280;68938;48.150;14.004;2023-05-02T00:40:44;98031.28;;;16.24;67.55
3260;BME280;68938;48.150;14.004;2023-05-02T00:43:12;98029.69;;;16.22;67.58
3260;BME280;68938;48.150;14.004;2023-05-02T00:45:41;98037.72;;;16.33;67.30
3260;BME280;68938;48.150;14.004;2023-05-02T00:48:10;98039.31;;;16.35;67.29
3260;BME280;68938;48.150;14.004;2023-05-02T00:50:39;98043.66;;;16.35;67.46
3260;BME280;68938;48.150;14.004;2023-05-02T00:53:08;98044.38;;;16.37;67.47
3260;BME280;68938;48.150;14.004;2023-05-02T00:55:37;98040.22;;;16.34;67.63
3260;BME280;68938;48.150;14.004;2023-05-02T00:58:15;98048.50;;;16.41;67.37
3260;BME280;68938;48.150;14.004;2023-05-02T01:14:44;98049.66;;;16.51;67.39
3260;BME280;68938;48.150;14.004;2023-05-02T01:17:14;98049.72;;;16.50;67.23
3260;BME280;68938;48.150;14.004;2023-05-02T01:19:46;98044.22;;;16.56;66.95
3260;BME280;68938;48.150;14.004;2023-05-02T01:22:25;98049.38;;;16.56;66.77
3260;BME280;68938;48.150;14.004;2023-05-02T01:27:39;98058.75;;;16.58;67.32
3260;BME280;68938;48.150;14.004;2023-05-02T01:30:14;98057.25;;;16.39;67.45
3260;BME280;68938;48.150;14.004;2023-05-02T01:32:46;98064.75;;;16.43;67.62
3260;BME280;68938;48.150;14.004;2023-05-02T01:35:15;98060.41;;;16.44;67.72
3260;BME280;68938;48.150;14.004;2023-05-02T01:37:47;98073.97;;;16.49;67.60
3260;BME280;68938;48.150;14.004;2023-05-02T01:40:18;98062.84;;;16.47;67.41
3260;BME280;68938;48.150;14.004;2023-05-02T01:42:47;98060.09;;;16.50;67.69
3260;BME280;68938;48.150;14.004;2023-05-02T01:45:16;98067.78;;;16.51;67.34
3260;BME280;68938;48.150;14.004;2023-05-02T01:47:45;98070.38;;;16.51;67.31
3260;BME280;68938;48.150;14.004;2023-05-02T01:50:16;98060.69;;;16.55;67.16
3260;BME280;68938;48.150;14.004;2023-05-02T01:52:46;98073.38;;;16.59;67.04
3260;BME280;68938;48.150;14.004;2023-05-02T01:55:16;98064.00;;;16.57;67.41
3260;BME280;68938;48.150;14.004;2023-05-02T01:57:45;98075.94;;;16.59;67.35
3260;BME280;68938;48.150;14.004;2023-05-02T02:00:15;98070.00;;;16.57;67.39
3260;BME280;68938;48.150;14.004;2023-05-02T02:02:44;98074.94;;;16.46;67.34
3260;BME280;68938;48.150;14.004;2023-05-02T02:05:13;98072.53;;;16.43;67.76
3260;BME280;68938;48.150;14.004;2023-05-02T02:07:42;98074.69;;;16.51;67.64
3260;BME280;68938;48.150;14.004;2023-05-02T02:10:09;98076.03;;;16.42;67.93
3260;BME280;68938;48.150;14.004;2023-05-02T02:12:50;98079.63;;;16.40;67.88
3260;BME280;68938;48.150;14.004;2023-05-02T02:15:24;98075.22;;;16.42;67.88
3260;BME280;68938;48.150;14.004;2023-05-02T02:20:31;98079.81;;;16.52;67.45
3260;BME280;68938;48.150;14.004;2023-05-02T02:23:02;98077.88;;;16.24;68.21
3260;BME280;68938;48.150;14.004;2023-05-02T02:25:32;98077.63;;;16.29;68.22
3260;BME280;68938;48.150;14.004;2023-05-02T02:28:00;98081.78;;;16.16;68.38
3260;BME280;68938;48.150;14.004;2023-05-02T02:30:27;98081.38;;;16.23;68.51
3260;BME280;68938;48.150;14.004;2023-05-02T02:32:54;98072.88;;;16.21;68.39
3260;BME280;68938;48.150;14.004;2023-05-02T02:35:21;98075.81;;;16.31;67.86
3260;BME280;68938;48.150;14.004;2023-05-02T02:38:21;98075.38;;;16.39;67.83
3260;BME280;68938;48.150;14.004;2023-05-02T02:41:00;98078.13;;;16.35;67.85
3260;BME280;68938;48.150;14.004;2023-05-02T02:44:18;98078.13;;;16.35;67.37
3260;BME280;68938;48.150;14.004;2023-05-02T02:47:40;98082.63;;;16.32;67.60
3260;BME280;68938;48.150;14.004;2023-05-02T02:53:03;98089.16;;;16.39;67.34
3260;BME280;68938;48.150;14.004;2023-05-02T02:55:39;98090.75;;;16.42;67.27
3260;BME280;68938;48.150;14.004;2023-05-02T03:01:19;98086.63;;;16.22;67.37
3260;BME280;68938;48.150;14.004;2023-05-02T03:03:48;98091.06;;;16.20;66.84
3260;BME280;68938;48.150;14.004;2023-05-02T03:06:17;98088.03;;;16.11;66.87
3260;BME280;68938;48.150;14.004;2023-05-02T03:08:44;98086.44;;;16.09;67.10
3260;BME280;68938;48.150;14.004;2023-05-02T03:11:11;98086.97;;;16.16;66.98
3260;BME280;68938;48.150;14.004;2023-05-02T03:13:38;98090.69;;;16.10;66.84
3260;BME280;68938;48.150;14.004;2023-05-02T03:18:39;98101.66;;;16.15;66.63
3260;BME280;68938;48.150;14.004;2023-05-02T03:21:06;98096.38;;;16.17;66.81
3260;BME280;68938;48.150;14.004;2023-05-02T03:23:33;98101.16;;;16.08;66.41
3260;BME280;68938;48.150;14.004;2023-05-02T03:26:00;98104.78;;;15.88;67.25
3260;BME280;68938;48.150;14.004;2023-05-02T03:28:27;98109.78;;;15.92;67.44
3260;BME280;68938;48.150;14.004;2023-05-02T03:30:54;98113.50;;;16.03;67.11
3260;BME280;68938;48.150;14.004;2023-05-02T03:33:21;98108.81;;;16.10;66.85
3260;BME280;68938;48.150;14.004;2023-05-02T03:35:48;98109.66;;;16.10;66.42
3260;BME280;68938;48.150;14.004;2023-05-02T03:38:15;98103.31;;;16.00;66.71
3260;BME280;68938;48.150;14.004;2023-05-02T03:40:42;98118.19;;;16.13;66.71
3260;BME280;68938;48.150;14.004;2023-05-02T03:43:08;98121.41;;;16.00;66.85
3260;BME280;68938;48.150;14.004;2023-05-02T03:45:35;98118.91;;;15.99;67.06
3260;BME280;68938;48.150;14.004;2023-05-02T03:48:02;98117.28;;;15.96;66.54
3260;BME280;68938;48.150;14.004;2023-05-02T03:50:29;98126.13;;;15.76;67.08
3260;BME280;68938;48.150;14.004;2023-05-02T03:52:56;98128.69;;;15.76;67.70
3260;BME280;68938;48.150;14.004;2023-05-02T03:55:23;98129.91;;;15.86;67.50
3260;BME280;68938;48.150;14.004;2023-05-02T03:57:50;98132.19;;;15.75;67.19
3260;BME280;68938;48.150;14.004;2023-05-02T04:00:17;98139.72;;;15.80;66.84
3260;BME280;68938;48.150;14.004;2023-05-02T04:02:44;98143.88;;;15.82;67.30
3260;BME280;68938;48.150;14.004;2023-05-02T04:05:11;98143.34;;;15.93;67.17
3260;BME280;68938;48.150;14.004;2023-05-02T04:07:38;98150.94;;;15.96;66.82
3260;BME280;68938;48.150;14.004;2023-05-02T04:10:05;98151.53;;;16.01;66.96
3260;BME280;68938;48.150;14.004;2023-05-02T04:12:32;98154.38;;;15.97;66.82
3260;BME280;68938;48.150;14.004;2023-05-02T04:14:59;98154.28;;;15.98;66.58
3260;BME280;68938;48.150;14.004;2023-05-02T04:17:25;98151.78;;;15.97;66.81
3260;BME280;68938;48.150;14.004;2023-05-02T04:19:52;98152.69;;;15.96;66.56
3260;BME280;68938;48.150;14.004;2023-05-02T04:22:19;98163.66;;;16.01;66.82
3260;BME280;68938;48.150;14.004;2023-05-02T04:24:46;98162.81;;;16.00;66.62
3260;BME280;68938;48.150;14.004;2023-05-02T04:27:13;98167.16;;;15.82;66.77
3260;BME280;68938;48.150;14.004;2023-05-02T04:29:41;98168.97;;;15.63;67.51
3260;BME280;68938;48.150;14.004;2023-05-02T04:32:08;98175.69;;;15.84;67.55
3260;BME280;68938;48.150;14.004;2023-05-02T04:34:35;98176.75;;;15.80;67.45
3260;BME280;68938;48.150;14.004;2023-05-02T04:37:02;98183.47;;;15.67;68.16
3260;BME280;68938;48.150;14.004;2023-05-02T04:39:29;98183.56;;;15.64;68.14
3260;BME280;68938;48.150;14.004;2023-05-02T04:41:56;98188.81;;;15.45;68.68
3260;BME280;68938;48.150;14.004;2023-05-02T04:44:23;98179.53;;;15.41;68.63
3260;BME280;68938;48.150;14.004;2023-05-02T04:46:50;98201.13;;;15.40;69.01
3260;BME280;68938;48.150;14.004;2023-05-02T04:49:17;98195.38;;;15.52;68.57
3260;BME280;68938;48.150;14.004;2023-05-02T04:51:44;98195.00;;;15.60;68.22
3260;BME280;68938;48.150;14.004;2023-05-02T04:54:11;98197.88;;;15.54;68.28
3260;BME280;68938;48.150;14.004;2023-05-02T04:56:38;98195.13;;;15.57;68.65
3260;BME280;68938;48.150;14.004;2023-05-02T04:59:05;98205.59;;;15.73;68.37
3260;BME280;68938;48.150;14.004;2023-05-02T05:01:32;98187.56;;;15.71;67.91
3260;BME280;68938;48.150;14.004;2023-05-02T05:03:59;98207.56;;;15.85;67.97
3260;BME280;68938;48.150;14.004;2023-05-02T05:06:26;98208.78;;;15.95;67.55
3260;BME280;68938;48.150;14.004;2023-05-02T05:08:53;98215.78;;;15.76;68.15
3260;BME280;68938;48.150;14.004;2023-05-02T05:11:20;98213.66;;;15.84;68.07
3260;BME280;68938;48.150;14.004;2023-05-02T05:13:47;98219.81;;;15.81;68.46
3260;BME280;68938;48.150;14.004;2023-05-02T05:16:14;98223.84;;;15.70;68.79
3260;BME280;68938;48.150;14.004;2023-05-02T05:18:41;98220.44;;;15.33;70.65
3260;BME280;68938;48.150;14.004;2023-05-02T05:21:08;98218.31;;;15.58;69.33
3260;BME280;68938;48.150;14.004;2023-05-02T05:23:37;98231.31;;;15.39;70.05
3260;BME280;68938;48.150;14.004;2023-05-02T05:26:11;98228.50;;;15.44;70.37
3260;BME280;68938;48.150;14.004;2023-05-02T05:28:39;98232.81;;;15.26;70.56
3260;BME280;68938;48.150;14.004;2023-05-02T05:31:07;98230.88;;;15.12;72.15
3260;BME280;68938;48.150;14.004;2023-05-02T05:33:37;98237.19;;;15.24;71.79
3260;BME280;68938;48.150;14.004;2023-05-02T05:36:06;98222.19;;;15.13;71.39
3260;BME280;68938;48.150;14.004;2023-05-02T05:38:34;98236.41;;;15.41;71.11
3260;BME280;68938;48.150;14.004;2023-05-02T05:41:02;98237.09;;;15.45;71.76
3260;BME280;68938;48.150;14.004;2023-05-02T05:43:30;98238.41;;;15.53;70.77
3260;BME280;68938;48.150;14.004;2023-05-02T05:45:57;98239.97;;;15.75;69.46
3260;BME280;68938;48.150;14.004;2023-05-02T05:48:24;98242.75;;;15.53;70.59
3260;BME280;68938;48.150;14.004;2023-05-02T05:50:51;98252.06;;;15.74;70.01
3260;BME280;68938;48.150;14.004;2023-05-02T05:53:18;98252.63;;;15.62;71.02
3260;BME280;68938;48.150;14.004;2023-05-02T05:55:46;98252.19;;;15.35;71.15
3260;BME280;68938;48.150;14.004;2023-05-02T05:58:13;98251.22;;;15.74;69.93
3260;BME280;68938;48.150;14.004;2023-05-02T06:00:40;98245.75;;;15.97;70.14
3260;BME280;68938;48.150;14.004;2023-05-02T06:03:06;98244.84;;;15.98;69.36
3260;BME280;68938;48.150;14.004;2023-05-02T06:05:35;98254.41;;;16.14;69.02
3260;BME280;68938;48.150;14.004;2023-05-02T06:08:02;98246.34;;;16.20;68.51
3260;BME280;68938;48.150;14.004;2023-05-02T06:10:30;98261.16;;;16.33;68.77
3260;BME280;68938;48.150;14.004;2023-05-02T06:12:57;98260.25;;;16.34;68.26
3260;BME280;68938;48.150;14.004;2023-05-02T06:15:24;98259.78;;;16.44;68.47
3260;BME280;68938;48.150;14.004;2023-05-02T06:17:51;98260.19;;;16.36;68.72
3260;BME280;68938;48.150;14.004;2023-05-02T06:20:18;98257.59;;;16.36;68.33
3260;BME280;68938;48.150;14.004;2023-05-02T06:22:45;98260.44;;;16.47;68.16
3260;BME280;68938;48.150;14.004;2023-05-02T06:25:12;98271.88;;;16.43;68.08
3260;BME280;68938;48.150;14.004;2023-05-02T06:27:39;98265.03;;;16.42;67.10
3260;BME280;68938;48.150;14.004;2023-05-02T06:30:06;98271.16;;;16.57;67.12
3260;BME280;68938;48.150;14.004;2023-05-02T06:32:33;98274.72;;;16.39;67.92
3260;BME280;68938;48.150;14.004;2023-05-02T06:35:00;98278.56;;;16.47;67.22
3260;BME280;68938;48.150;14.004;2023-05-02T06:37:33;98277.13;;;16.59;66.85
3260;BME280;68938;48.150;14.004;2023-05-02T06:40:01;98278.31;;;16.19;66.25
3260;BME280;68938;48.150;14.004;2023-05-02T06:42:28;98276.84;;;16.48;65.68
3260;BME280;68938;48.150;14.004;2023-05-02T06:44:55;98284.38;;;16.52;64.90
3260;BME280;68938;48.150;14.004;2023-05-02T06:47:22;98288.53;;;16.22;65.86
3260;BME280;68938;48.150;14.004;2023-05-02T06:49:50;98291.91;;;16.40;65.35
3260;BME280;68938;48.150;14.004;2023-05-02T06:52:18;98286.75;;;16.40;65.13
3260;BME280;68938;48.150;14.004;2023-05-02T06:54:45;98296.34;;;16.71;65.19
3260;BME280;68938;48.150;14.004;2023-05-02T06:57:12;98302.50;;;16.52;65.37
3260;BME280;68938;48.150;14.004;2023-05-02T06:59:38;98286.97;;;16.52;64.57
3260;BME280;68938;48.150;14.004;2023-05-02T07:02:05;98311.41;;;16.47;65.45
3260;BME280;68938;48.150;14.004;2023-05-02T07:04:32;98300.84;;;16.51;64.68
3260;BME280;68938;48.150;14.004;2023-05-02T07:06:59;98303.50;;;16.15;65.76
3260;BME280;68938;48.150;14.004;2023-05-02T07:09:26;98310.50;;;16.30;66.37
3260;BME280;68938;48.150;14.004;2023-05-02T07:11:53;98301.91;;;16.13;68.27
3260;BME280;68938;48.150;14.004;2023-05-02T07:14:20;98310.59;;;16.29;67.26
3260;BME280;68938;48.150;14.004;2023-05-02T07:16:47;98302.97;;;16.26;66.87
3260;BME280;68938;48.150;14.004;2023-05-02T07:19:14;98310.50;;;16.48;65.76
3260;BME280;68938;48.150;14.004;2023-05-02T07:21:41;98309.59;;;16.49;65.68
3260;BME280;68938;48.150;14.004;2023-05-02T07:24:08;98300.16;;;16.48;64.99
3260;BME280;68938;48.150;14.004;2023-05-02T07:26:35;98314.16;;;16.44;65.67
3260;BME280;68938;48.150;14.004;2023-05-02T07:29:02;98324.50;;;16.44;65.12
3260;BME280;68938;48.150;14.004;2023-05-02T07:31:29;98322.25;;;16.38;63.85
3260;BME280;68938;48.150;14.004;2023-05-02T07:33:56;98324.41;;;16.63;63.15
3260;BME280;68938;48.150;14.004;2023-05-02T07:36:22;98323.56;;;16.79;62.07
3260;BME280;68938;48.150;14.004;2023-05-02T07:38:49;98328.88;;;16.94;61.88
3260;BME280;68938;48.150;14.004;2023-05-02T07:41:16;98322.13;;;17.07;61.94
3260;BME280;68938;48.150;14.004;2023-05-02T07:43:43;98314.03;;;17.13;61.46
3260;BME280;68938;48.150;14.004;2023-05-02T07:46:10;98324.72;;;17.07;61.82
3260;BME280;68938;48.150;14.004;2023-05-02T07:48:37;98325.22;;;17.14;61.57
3260;BME280;68938;48.150;14.004;2023-05-02T07:51:05;98331.91;;;17.18;60.26
3260;BME280;68938;48.150;14.004;2023-05-02T07:53:33;98327.78;;;16.82;62.03
3260;BME280;68938;48.150;14.004;2023-05-02T07:56:02;98334.00;;;17.11;61.98
3260;BME280;68938;48.150;14.004;2023-05-02T07:58:30;98337.50;;;17.26;61.15
3260;BME280;68938;48.150;14.004;2023-05-02T08:00:57;98345.97;;;17.45;60.28
3260;BME280;68938;48.150;14.004;2023-05-02T08:03:24;98338.38;;;17.26;60.05
3260;BME280;68938;48.150;14.004;2023-05-02T08:05:51;98347.31;;;17.37;60.64
3260;BME280;68938;48.150;14.004;2023-05-02T08:08:18;98352.44;;;17.54;60.06
3260;BME280;68938;48.150;14.004;2023-05-02T08:10:45;98347.75;;;17.61;59.25
3260;BME280;68938;48.150;14.004;2023-05-02T08:13:12;98356.00;;;17.20;59.69
3260;BME280;68938;48.150;14.004;2023-05-02T08:15:39;98355.56;;;17.12;60.62
3260;BME280;68938;48.150;14.004;2023-05-02T08:18:06;98351.38;;;17.09;60.05
3260;BME280;68938;48.150;14.004;2023-05-02T08:20:33;98347.22;;;17.38;60.31
3260;BME280;68938;48.150;14.004;2023-05-02T08:23:00;98355.94;;;17.37;59.16
3260;BME280;68938;48.150;14.004;2023-05-02T08:25:27;98352.41;;;17.38;58.88
3260;BME280;68938;48.150;14.004;2023-05-02T08:27:53;98348.06;;;17.39;58.74
3260;BME280;68938;48.150;14.004;2023-05-02T08:30:20;98343.13;;;17.34;58.89
3260;BME280;68938;48.150;14.004;2023-05-02T08:32:47;98335.09;;;17.55;58.08
3260;BME280;68938;48.150;14.004;2023-05-02T08:35:14;98352.34;;;17.56;58.31
3260;BME280;68938;48.150;14.004;2023-05-02T08:37:41;98355.16;;;17.67;58.07
3260;BME280;68938;48.150;14.004;2023-05-02T08:40:11;98351.22;;;17.91;57.59
3260;BME280;68938;48.150;14.004;2023-05-02T08:42:41;98351.47;;;18.03;56.60
3260;BME280;68938;48.150;14.004;2023-05-02T08:45:11;98347.56;;;18.26;55.84
3260;BME280;68938;48.150;14.004;2023-05-02T08:47:41;98351.38;;;18.04;57.51
3260;BME280;68938;48.150;14.004;2023-05-02T08:50:09;98342.28;;;17.97;56.58
3260;BME280;68938;48.150;14.004;2023-05-02T08:52:37;98345.53;;;18.00;56.66
3260;BME280;68938;48.150;14.004;2023-05-02T08:55:07;98354.94;;;17.56;55.33
3260;BME280;68938;48.150;14.004;2023-05-02T08:57:34;98353.59;;;17.96;55.89
3260;BME280;68938;48.150;14.004;2023-05-02T09:00:01;98355.25;;;18.27;55.64
3260;BME280;68938;48.150;14.004;2023-05-02T09:02:50;98353.19;;;18.18;54.28
3260;BME280;68938;48.150;14.004;2023-05-02T09:05:24;98349.00;;;18.45;55.42
3260;BME280;68938;48.150;14.004;2023-05-02T09:07:51;98360.72;;;18.22;55.65
3260;BME280;68938;48.150;14.004;2023-05-02T09:10:20;98358.31;;;18.50;54.28
3260;BME280;68938;48.150;14.004;2023-05-02T09:12:47;98358.34;;;18.34;54.40
3260;BME280;68938;48.150;14.004;2023-05-02T09:15:15;98364.50;;;18.17;54.53
3260;BME280;68938;48.150;14.004;2023-05-02T09:17:47;98356.72;;;18.47;53.77
3260;BME280;68938;48.150;14.004;2023-05-02T09:20:15;98358.84;;;18.55;52.90
3260;BME280;68938;48.150;14.004;2023-05-02T09:22:50;98360.50;;;18.72;53.36
3260;BME280;68938;48.150;14.004;2023-05-02T09:25:21;98357.88;;;18.86;51.62
3260;BME280;68938;48.150;14.004;2023-05-02T09:27:52;98354.63;;;18.82;50.50
3260;BME280;68938;48.150;14.004;2023-05-02T09:30:23;98366.34;;;18.89;51.09
3260;BME280;68938;48.150;14.004;2023-05-02T09:32:52;98364.69;;;18.44;51.62
3260;BME280;68938;48.150;14.004;2023-05-02T09:35:19;98366.47;;;18.58;52.50
3260;BME280;68938;48.150;14.004;2023-05-02T09:37:46;98361.44;;;18.99;52.27
3260;BME280;68938;48.150;14.004;2023-05-02T09:40:13;98355.31;;;18.56;49.99
3260;BME280;68938;48.150;14.004;2023-05-02T09:42:41;98364.78;;;19.15;49.62
3260;BME280;68938;48.150;14.004;2023-05-02T09:45:08;98370.91;;;19.29;49.93
3260;BME280;68938;48.150;14.004;2023-05-02T09:47:43;98374.31;;;19.01;49.99
3260;BME280;68938;48.150;14.004;2023-05-02T09:50:10;98380.09;;;18.77;49.40
3260;BME280;68938;48.150;14.004;2023-05-02T09:52:37;98386.97;;;18.62;49.42
3260;BME280;68938;48.150;14.004;2023-05-02T09:55:19;98385.09;;;19.09;48.98
3260;BME280;68938;48.150;14.004;2023-05-02T09:57:46;98380.59;;;18.68;49.38
3260;BME280;68938;48.150;14.004;2023-05-02T10:00:13;98384.25;;;18.80;49.71
3260;BME280;68938;48.150;14.004;2023-05-02T10:02:42;98387.53;;;18.98;50.36
3260;BME280;68938;48.150;14.004;2023-05-02T10:05:09;98371.72;;;18.72;48.69
3260;BME280;68938;48.150;14.004;2023-05-02T10:07:36;98372.47;;;18.88;48.91
3260;BME280;68938;48.150;14.004;2023-05-02T10:10:05;98384.75;;;19.15;49.54
3260;BME280;68938;48.150;14.004;2023-05-02T10:12:33;98389.94;;;19.29;48.16
3260;BME280;68938;48.150;14.004;2023-05-02T10:15:03;98393.81;;;19.51;48.17
3260;BME280;68938;48.150;14.004;2023-05-02T10:17:36;98374.88;;;19.20;47.37
3260;BME280;68938;48.150;14.004;2023-05-02T10:20:06;98390.28;;;19.66;48.20
3260;BME280;68938;48.150;14.004;2023-05-02T10:22:34;98379.91;;;19.79;46.55
3260;BME280;68938;48.150;14.004;2023-05-02T10:25:02;98388.72;;;19.63;46.86
3260;BME280;68938;48.150;14.004;2023-05-02T10:27:30;98389.69;;;19.61;46.14
3260;BME280;68938;48.150;14.004;2023-05-02T10:29:59;98390.47;;;19.63;46.35
3260;BME280;68938;48.150;14.004;2023-05-02T10:32:27;98384.03;;;19.69;45.80
3260;BME280;68938;48.150;14.004;2023-05-02T10:35:02;98377.75;;;19.85;46.24
3260;BME280;68938;48.150;14.004;2023-05-02T10:37:31;98391.41;;;19.89;46.56
3260;BME280;68938;48.150;14.004;2023-05-02T10:40:00;98385.63;;;19.71;45.39
3260;BME280;68938;48.150;14.004;2023-05-02T10:42:29;98390.75;;;19.73;45.56
3260;BME280;68938;48.150;14.004;2023-05-02T10:44:57;98389.13;;;19.84;45.55
3260;BME280;68938;48.150;14.004;2023-05-02T10:47:26;98388.13;;;20.00;45.42
3260;BME280;68938;48.150;14.004;2023-05-02T10:49:59;98384.34;;;20.18;45.99
3260;BME280;68938;48.150;14.004;2023-05-02T10:52:36;98391.53;;;19.87;45.80
3260;BME280;68938;48.150;14.004;2023-05-02T10:55:21;98385.75;;;19.97;45.95
3260;BME280;68938;48.150;14.004;2023-05-02T11:00:30;98382.31;;;20.09;43.92
3260;BME280;68938;48.150;14.004;2023-05-02T11:02:59;98395.59;;;20.19;43.50
3260;BME280;68938;48.150;14.004;2023-05-02T11:05:27;98378.50;;;20.15;43.59
3260;BME280;68938;48.150;14.004;2023-05-02T11:10:47;98385.69;;;20.11;43.96
3260;BME280;68938;48.150;14.004;2023-05-02T11:13:14;98380.84;;;20.05;44.04
3260;BME280;68938;48.150;14.004;2023-05-02T11:18:11;98383.59;;;19.33;45.08
3260;BME280;68938;48.150;14.004;2023-05-02T11:20:43;98387.41;;;19.42;44.28
3260;BME280;68938;48.150;14.004;2023-05-02T11:25:54;98387.69;;;19.66;44.35
3260;BME280;68938;48.150;14.004;2023-05-02T11:31:08;98384.41;;;19.62;44.13
3260;BME280;68938;48.150;14.004;2023-05-02T11:33:36;98385.69;;;19.55;45.04
3260;BME280;68938;48.150;14.004;2023-05-02T11:36:03;98382.22;;;19.28;45.83
3260;BME280;68938;48.150;14.004;2023-05-02T11:38:36;98395.47;;;19.52;45.53
3260;BME280;68938;48.150;14.004;2023-05-02T11:41:04;98390.31;;;19.79;45.46
3260;BME280;68938;48.150;14.004;2023-05-02T11:43:31;98395.09;;;19.99;45.36
3260;BME280;68938;48.150;14.004;2023-05-02T11:45:59;98391.59;;;20.00;45.39
3260;BME280;68938;48.150;14.004;2023-05-02T11:48:26;98386.41;;;20.13;45.63
3260;BME280;68938;48.150;14.004;2023-05-02T11:50:57;98400.91;;;20.17;44.46
3260;BME280;68938;48.150;14.004;2023-05-02T11:53:26;98399.63;;;20.10;43.72
3260;BME280;68938;48.150;14.004;2023-05-02T11:55:55;98393.19;;;20.16;44.21
3260;BME280;68938;48.150;14.004;2023-05-02T11:58:25;98400.69;;;20.20;43.75
3260;BME280;68938;48.150;14.004;2023-05-02T12:00:54;98401.31;;;20.11;44.53
3260;BME280;68938;48.150;14.004;2023-05-02T12:06:07;98393.50;;;20.24;44.42
3260;BME280;68938;48.150;14.004;2023-05-02T12:08:39;98403.22;;;20.22;44.34
3260;BME280;68938;48.150;14.004;2023-05-02T12:11:08;98400.66;;;20.34;44.47
3260;BME280;68938;48.150;14.004;2023-05-02T12:13:46;98395.44;;;20.34;45.26
3260;BME280;68938;48.150;14.004;2023-05-02T12:16:15;98393.03;;;20.44;46.12
3260;BME280;68938;48.150;14.004;2023-05-02T12:18:44;98398.13;;;20.33;46.68
3260;BME280;68938;48.150;14.004;2023-05-02T12:21:11;98398.03;;;20.34;47.08
3260;BME280;68938;48.150;14.004;2023-05-02T12:23:38;98403.25;;;20.34;45.79
3260;BME280;68938;48.150;14.004;2023-05-02T12:26:22;98398.06;;;20.07;46.27
3260;BME280;68938;48.150;14.004;2023-05-02T12:28:51;98400.41;;;20.25;45.94
3260;BME280;68938;48.150;14.004;2023-05-02T12:31:18;98406.44;;;20.25;46.58
3260;BME280;68938;48.150;14.004;2023-05-02T12:33:46;98390.06;;;20.23;46.99
3260;BME280;68938;48.150;14.004;2023-05-02T12:36:13;98404.47;;;20.29;47.20
3260;BME280;68938;48.150;14.004;2023-05-02T12:38:47;98395.91;;;20.27;47.51
3260;BME280;68938;48.150;14.004;2023-05-02T12:41:14;98405.94;;;19.79;48.38
3260;BME280;68938;48.150;14.004;2023-05-02T12:43:48;98409.78;;;19.45;48.28
3260;BME280;68938;48.150;14.004;2023-05-02T12:46:15;98409.22;;;19.68;47.62
3260;BME280;68938;48.150;14.004;2023-05-02T12:48:42;98415.97;;;19.85;48.18
3260;BME280;68938;48.150;14.004;2023-05-02T12:51:21;98408.22;;;19.71;48.46
3260;BME280;68938;48.150;14.004;2023-05-02T12:53:49;98402.69;;;19.75;47.81
3260;BME280;68938;48.150;14.004;2023-05-02T12:56:15;98409.41;;;19.65;47.81
3260;BME280;68938;48.150;14.004;2023-05-02T12:58:46;98414.09;;;19.46;48.77
3260;BME280;68938;48.150;14.004;2023-05-02T13:01:14;98412.66;;;19.69;49.06
3260;BME280;68938;48.150;14.004;2023-05-02T13:03:42;98402.44;;;19.51;49.50
3260;BME280;68938;48.150;14.004;2023-05-02T13:06:10;98406.91;;;19.49;50.28
3260;BME280;68938;48.150;14.004;2023-05-02T13:08:37;98408.09;;;19.58;49.16
3260;BME280;68938;48.150;14.004;2023-05-02T13:11:04;98404.31;;;19.49;48.94
3260;BME280;68938;48.150;14.004;2023-05-02T13:13:31;98408.22;;;19.56;48.62
3260;BME280;68938;48.150;14.004;2023-05-02T13:15:58;98401.34;;;19.41;48.91
3260;BME280;68938;48.150;14.004;2023-05-02T13:18:25;98413.59;;;19.25;49.04
3260;BME280;68938;48.150;14.004;2023-05-02T13:20:53;98411.09;;;19.37;49.18
3260;BME280;68938;48.150;14.004;2023-05-02T13:23:20;98413.16;;;19.32;48.41
3260;BME280;68938;48.150;14.004;2023-05-02T13:25:47;98410.00;;;19.27;48.09
3260;BME280;68938;48.150;14.004;2023-05-02T13:28:14;98410.44;;;19.48;47.63
3260;BME280;68938;48.150;14.004;2023-05-02T13:30:40;98408.22;;;19.56;48.18
3260;BME280;68938;48.150;14.004;2023-05-02T13:33:08;98420.38;;;19.56;48.46
3260;BME280;68938;48.150;14.004;2023-05-02T13:35:35;98412.69;;;19.26;49.29
3260;BME280;68938;48.150;14.004;2023-05-02T13:38:02;98419.03;;;19.22;49.51
3260;BME280;68938;48.150;14.004;2023-05-02T13:40:29;98419.25;;;19.60;49.27
3260;BME280;68938;48.150;14.004;2023-05-02T13:42:56;98418.63;;;19.71;49.60
3260;BME280;68938;48.150;14.004;2023-05-02T13:45:23;98420.38;;;19.70;48.59
3260;BME280;68938;48.150;14.004;2023-05-02T13:47:50;98427.91;;;19.60;48.28
3260;BME280;68938;48.150;14.004;2023-05-02T13:50:17;98420.22;;;19.73;48.08
3260;BME280;68938;48.150;14.004;2023-05-02T13:52:44;98424.81;;;19.82;48.24